sensor_id;sensor_type;location;lat;lon;timestamp;P1;durP1;ratioP1;P2;durP2;ratioP2
12271;SDS011;6198;51.446;6.698;2022-09-24T00:02:16;22.80;;;18.87;;
12271;SDS011;6198;51.446;6.698;2022-09-24T00:04:42;21.20;;;17.50;;
12271;SDS011;6198;51.446;6.698;2022-09-24T00:07:08;21.07;;;18.70;;
12271;SDS011;6198;51.446;6.698;2022-09-24T00:09:34;26.50;;;19.33;;
12271;SDS011;6198;51.446;6.698;2022-09-24T00:12:00;23.13;;;18.70;;
12271;SDS011;6198;51.446;6.698;2022-09-24T00:14:26;25.10;;;20.40;;
12271;SDS011;6198;51.446;6.698;2022-09-24T00:16:52;22.13;;;19.63;;
12271;SDS011;6198;51.446;6.698;2022-09-24T00:19:18;21.43;;;18.87;;
12271;SDS011;6198;51.446;6.698;2022-09-24T00:21:44;25.70;;;21.13;;
12271;SDS011;6198;51.446;6.698;2022-09-24T00:24:14;25.83;;;20.53;;
12271;SDS011;6198;51.446;6.698;2022-09-24T00:27:00;24.77;;;20.70;;
12271;SDS011;6198;51.446;6.698;2022-09-24T00:29:27;24.27;;;20.33;;
12271;SDS011;6198;51.446;6.698;2022-09-24T00:31:55;24.43;;;20.63;;
12271;SDS011;6198;51.446;6.698;2022-09-24T00:34:21;26.93;;;20.63;;
12271;SDS011;6198;51.446;6.698;2022-09-24T00:36:47;23.57;;;20.47;;
12271;SDS011;6198;51.446;6.698;2022-09-24T00:39:13;24.77;;;21.60;;
12271;SDS011;6198;51.446;6.698;2022-09-24T00:41:39;24.47;;;21.80;;
12271;SDS011;6198;51.446;6.698;2022-09-24T00:46:53;28.67;;;24.00;;
12271;SDS011;6198;51.446;6.698;2022-09-24T00:49:19;28.70;;;24.03;;
12271;SDS011;6198;51.446;6.698;2022-09-24T00:51:46;29.53;;;23.77;;
12271;SDS011;6198;51.446;6.698;2022-09-24T00:54:14;27.57;;;23.27;;
12271;SDS011;6198;51.446;6.698;2022-09-24T00:56:42;28.57;;;23.47;;
12271;SDS011;6198;51.446;6.698;2022-09-24T00:59:10;28.47;;;23.43;;
12271;SDS011;6198;51.446;6.698;2022-09-24T01:01:40;27.60;;;24.20;;
12271;SDS011;6198;51.446;6.698;2022-09-24T01:04:07;30.27;;;24.13;;
12271;SDS011;6198;51.446;6.698;2022-09-24T01:06:34;27.47;;;24.23;;
12271;SDS011;6198;51.446;6.698;2022-09-24T01:09:00;27.53;;;24.30;;
12271;SDS011;6198;51.446;6.698;2022-09-24T01:11:44;27.70;;;24.60;;
12271;SDS011;6198;51.446;6.698;2022-09-24T01:24:59;31.57;;;26.97;;
12271;SDS011;6198;51.446;6.698;2022-09-24T01:30:03;28.07;;;23.57;;
12271;SDS011;6198;51.446;6.698;2022-09-24T01:34:58;32.70;;;25.50;;
12271;SDS011;6198;51.446;6.698;2022-09-24T01:37:26;33.17;;;27.53;;
12271;SDS011;6198;51.446;6.698;2022-09-24T01:39:53;33.43;;;26.30;;
12271;SDS011;6198;51.446;6.698;2022-09-24T01:42:21;31.27;;;27.50;;
12271;SDS011;6198;51.446;6.698;2022-09-24T01:44:48;33.13;;;27.57;;
12271;SDS011;6198;51.446;6.698;2022-09-24T01:47:29;30.97;;;26.77;;
12271;SDS011;6198;51.446;6.698;2022-09-24T01:49:55;29.87;;;25.70;;
12271;SDS011;6198;51.446;6.698;2022-09-24T01:52:23;31.23;;;26.40;;
12271;SDS011;6198;51.446;6.698;2022-09-24T01:54:50;31.93;;;25.00;;
12271;SDS011;6198;51.446;6.698;2022-09-24T01:57:21;28.20;;;24.50;;
12271;SDS011;6198;51.446;6.698;2022-09-24T01:59:49;30.70;;;24.90;;
12271;SDS011;6198;51.446;6.698;2022-09-24T02:02:38;28.03;;;24.33;;
12271;SDS011;6198;51.446;6.698;2022-09-24T02:10:58;28.90;;;24.90;;
12271;SDS011;6198;51.446;6.698;2022-09-24T02:13:26;29.50;;;24.60;;
12271;SDS011;6198;51.446;6.698;2022-09-24T02:15:57;29.20;;;24.50;;
12271;SDS011;6198;51.446;6.698;2022-09-24T02:18:26;26.87;;;23.97;;
12271;SDS011;6198;51.446;6.698;2022-09-24T02:20:53;27.47;;;23.33;;
12271;SDS011;6198;51.446;6.698;2022-09-24T02:23:19;27.93;;;23.47;;
12271;SDS011;6198;51.446;6.698;2022-09-24T02:25:59;27.33;;;22.93;;
12271;SDS011;6198;51.446;6.698;2022-09-24T02:28:26;25.07;;;22.13;;
12271;SDS011;6198;51.446;6.698;2022-09-24T02:30:54;26.37;;;22.70;;
12271;SDS011;6198;51.446;6.698;2022-09-24T02:33:21;26.50;;;22.13;;
12271;SDS011;6198;51.446;6.698;2022-09-24T02:36:07;24.07;;;20.40;;
12271;SDS011;6198;51.446;6.698;2022-09-24T02:38:35;24.10;;;20.70;;
12271;SDS011;6198;51.446;6.698;2022-09-24T02:41:01;26.33;;;20.93;;
12271;SDS011;6198;51.446;6.698;2022-09-24T02:43:27;26.33;;;20.80;;
12271;SDS011;6198;51.446;6.698;2022-09-24T02:45:53;24.13;;;20.13;;
12271;SDS011;6198;51.446;6.698;2022-09-24T02:48:19;24.53;;;20.87;;
12271;SDS011;6198;51.446;6.698;2022-09-24T02:50:45;22.83;;;20.27;;
12271;SDS011;6198;51.446;6.698;2022-09-24T02:53:11;23.53;;;19.33;;
12271;SDS011;6198;51.446;6.698;2022-09-24T02:55:37;21.50;;;19.27;;
12271;SDS011;6198;51.446;6.698;2022-09-24T02:58:03;22.10;;;18.87;;
12271;SDS011;6198;51.446;6.698;2022-09-24T03:00:29;21.43;;;18.37;;
12271;SDS011;6198;51.446;6.698;2022-09-24T03:02:54;21.47;;;18.87;;
12271;SDS011;6198;51.446;6.698;2022-09-24T03:05:20;21.43;;;18.20;;
12271;SDS011;6198;51.446;6.698;2022-09-24T03:07:46;23.33;;;19.87;;
12271;SDS011;6198;51.446;6.698;2022-09-24T03:10:12;22.47;;;18.63;;
12271;SDS011;6198;51.446;6.698;2022-09-24T03:12:38;22.60;;;18.97;;
12271;SDS011;6198;51.446;6.698;2022-09-24T03:15:06;20.70;;;17.70;;
12271;SDS011;6198;51.446;6.698;2022-09-24T03:17:32;20.03;;;17.93;;
12271;SDS011;6198;51.446;6.698;2022-09-24T03:19:58;22.77;;;19.10;;
12271;SDS011;6198;51.446;6.698;2022-09-24T03:22:24;23.33;;;19.27;;
12271;SDS011;6198;51.446;6.698;2022-09-24T03:24:49;22.70;;;18.47;;
12271;SDS011;6198;51.446;6.698;2022-09-24T03:27:15;21.17;;;18.57;;
12271;SDS011;6198;51.446;6.698;2022-09-24T03:29:41;25.60;;;19.37;;
12271;SDS011;6198;51.446;6.698;2022-09-24T03:32:26;23.93;;;19.73;;
12271;SDS011;6198;51.446;6.698;2022-09-24T03:34:52;25.40;;;19.37;;
12271;SDS011;6198;51.446;6.698;2022-09-24T03:37:18;23.57;;;19.43;;
12271;SDS011;6198;51.446;6.698;2022-09-24T03:39:44;23.23;;;19.23;;
12271;SDS011;6198;51.446;6.698;2022-09-24T03:42:09;24.80;;;19.03;;
12271;SDS011;6198;51.446;6.698;2022-09-24T03:44:35;21.43;;;18.37;;
12271;SDS011;6198;51.446;6.698;2022-09-24T03:47:01;23.67;;;18.43;;
12271;SDS011;6198;51.446;6.698;2022-09-24T03:49:28;21.43;;;18.17;;
12271;SDS011;6198;51.446;6.698;2022-09-24T03:51:54;22.87;;;18.90;;
12271;SDS011;6198;51.446;6.698;2022-09-24T03:54:20;22.37;;;18.90;;
12271;SDS011;6198;51.446;6.698;2022-09-24T03:56:46;24.00;;;19.20;;
12271;SDS011;6198;51.446;6.698;2022-09-24T03:59:11;25.17;;;19.07;;
12271;SDS011;6198;51.446;6.698;2022-09-24T04:01:37;24.40;;;19.70;;
12271;SDS011;6198;51.446;6.698;2022-09-24T04:04:03;22.60;;;19.23;;
12271;SDS011;6198;51.446;6.698;2022-09-24T04:06:30;22.27;;;19.33;;
12271;SDS011;6198;51.446;6.698;2022-09-24T04:08:56;26.43;;;19.73;;
12271;SDS011;6198;51.446;6.698;2022-09-24T04:11:22;24.60;;;19.47;;
12271;SDS011;6198;51.446;6.698;2022-09-24T04:13:49;21.23;;;17.00;;
12271;SDS011;6198;51.446;6.698;2022-09-24T04:16:15;22.57;;;18.00;;
12271;SDS011;6198;51.446;6.698;2022-09-24T04:18:41;23.70;;;18.67;;
12271;SDS011;6198;51.446;6.698;2022-09-24T04:21:07;21.03;;;18.40;;
12271;SDS011;6198;51.446;6.698;2022-09-24T04:23:33;28.33;;;18.83;;
12271;SDS011;6198;51.446;6.698;2022-09-24T04:25:59;23.77;;;18.27;;
12271;SDS011;6198;51.446;6.698;2022-09-24T04:28:26;22.20;;;18.00;;
12271;SDS011;6198;51.446;6.698;2022-09-24T04:30:52;21.87;;;18.10;;
12271;SDS011;6198;51.446;6.698;2022-09-24T04:33:18;23.17;;;18.23;;
12271;SDS011;6198;51.446;6.698;2022-09-24T04:35:44;22.30;;;18.67;;
12271;SDS011;6198;51.446;6.698;2022-09-24T04:38:10;22.03;;;18.20;;
12271;SDS011;6198;51.446;6.698;2022-09-24T04:40:36;21.73;;;17.20;;
12271;SDS011;6198;51.446;6.698;2022-09-24T04:43:03;20.43;;;17.97;;
12271;SDS011;6198;51.446;6.698;2022-09-24T04:45:29;23.20;;;18.43;;
12271;SDS011;6198;51.446;6.698;2022-09-24T04:47:56;24.90;;;18.33;;
12271;SDS011;6198;51.446;6.698;2022-09-24T04:50:23;25.87;;;19.07;;
12271;SDS011;6198;51.446;6.698;2022-09-24T04:52:49;24.40;;;18.77;;
12271;SDS011;6198;51.446;6.698;2022-09-24T04:55:15;21.97;;;18.00;;
12271;SDS011;6198;51.446;6.698;2022-09-24T04:57:42;21.63;;;17.80;;
12271;SDS011;6198;51.446;6.698;2022-09-24T05:00:11;23.50;;;19.63;;
12271;SDS011;6198;51.446;6.698;2022-09-24T05:02:39;21.27;;;17.93;;
12271;SDS011;6198;51.446;6.698;2022-09-24T05:05:05;21.70;;;18.47;;
12271;SDS011;6198;51.446;6.698;2022-09-24T05:07:31;21.77;;;18.53;;
12271;SDS011;6198;51.446;6.698;2022-09-24T05:09:57;24.50;;;18.93;;
12271;SDS011;6198;51.446;6.698;2022-09-24T05:12:23;22.83;;;18.67;;
12271;SDS011;6198;51.446;6.698;2022-09-24T05:14:49;22.07;;;18.73;;
12271;SDS011;6198;51.446;6.698;2022-09-24T05:17:15;22.83;;;18.00;;
12271;SDS011;6198;51.446;6.698;2022-09-24T05:19:41;26.60;;;19.47;;
12271;SDS011;6198;51.446;6.698;2022-09-24T05:22:07;23.37;;;18.13;;
12271;SDS011;6198;51.446;6.698;2022-09-24T05:24:33;24.40;;;18.67;;
12271;SDS011;6198;51.446;6.698;2022-09-24T05:26:59;21.33;;;17.80;;
12271;SDS011;6198;51.446;6.698;2022-09-24T05:29:37;20.63;;;17.53;;
12271;SDS011;6198;51.446;6.698;2022-09-24T05:32:04;20.83;;;17.00;;
12271;SDS011;6198;51.446;6.698;2022-09-24T05:34:31;17.40;;;14.23;;
12271;SDS011;6198;51.446;6.698;2022-09-24T05:36:56;17.40;;;14.93;;
12271;SDS011;6198;51.446;6.698;2022-09-24T05:39:22;20.50;;;14.43;;
12271;SDS011;6198;51.446;6.698;2022-09-24T05:41:48;15.70;;;13.00;;
12271;SDS011;6198;51.446;6.698;2022-09-24T05:44:14;17.03;;;13.97;;
12271;SDS011;6198;51.446;6.698;2022-09-24T05:46:44;14.93;;;13.03;;
12271;SDS011;6198;51.446;6.698;2022-09-24T05:49:10;19.50;;;13.63;;
12271;SDS011;6198;51.446;6.698;2022-09-24T05:51:36;17.77;;;13.60;;
12271;SDS011;6198;51.446;6.698;2022-09-24T05:54:02;16.47;;;13.23;;
12271;SDS011;6198;51.446;6.698;2022-09-24T05:56:28;15.27;;;13.23;;
12271;SDS011;6198;51.446;6.698;2022-09-24T05:58:54;19.03;;;13.67;;
12271;SDS011;6198;51.446;6.698;2022-09-24T06:01:20;23.77;;;15.30;;
12271;SDS011;6198;51.446;6.698;2022-09-24T06:03:46;20.30;;;16.13;;
12271;SDS011;6198;51.446;6.698;2022-09-24T06:06:12;21.40;;;16.17;;
12271;SDS011;6198;51.446;6.698;2022-09-24T06:08:38;19.13;;;16.53;;
12271;SDS011;6198;51.446;6.698;2022-09-24T06:11:05;20.23;;;16.63;;
12271;SDS011;6198;51.446;6.698;2022-09-24T06:13:32;22.03;;;16.93;;
12271;SDS011;6198;51.446;6.698;2022-09-24T06:16:05;21.73;;;17.93;;
12271;SDS011;6198;51.446;6.698;2022-09-24T06:18:33;22.70;;;17.03;;
12271;SDS011;6198;51.446;6.698;2022-09-24T06:20:59;19.90;;;17.47;;
12271;SDS011;6198;51.446;6.698;2022-09-24T06:23:27;21.53;;;17.67;;
12271;SDS011;6198;51.446;6.698;2022-09-24T06:25:53;24.83;;;18.50;;
12271;SDS011;6198;51.446;6.698;2022-09-24T06:28:19;31.10;;;19.47;;
12271;SDS011;6198;51.446;6.698;2022-09-24T06:30:45;25.20;;;19.13;;
12271;SDS011;6198;51.446;6.698;2022-09-24T06:33:11;30.63;;;20.20;;
12271;SDS011;6198;51.446;6.698;2022-09-24T06:35:38;28.43;;;19.73;;
12271;SDS011;6198;51.446;6.698;2022-09-24T06:38:05;27.20;;;20.40;;
12271;SDS011;6198;51.446;6.698;2022-09-24T06:40:31;27.40;;;19.50;;
12271;SDS011;6198;51.446;6.698;2022-09-24T06:42:58;32.57;;;20.70;;
12271;SDS011;6198;51.446;6.698;2022-09-24T06:45:24;28.53;;;21.23;;
12271;SDS011;6198;51.446;6.698;2022-09-24T06:47:54;27.77;;;22.30;;
12271;SDS011;6198;51.446;6.698;2022-09-24T06:50:21;27.90;;;21.53;;
12271;SDS011;6198;51.446;6.698;2022-09-24T06:52:47;28.83;;;21.50;;
12271;SDS011;6198;51.446;6.698;2022-09-24T06:55:13;30.03;;;21.90;;
12271;SDS011;6198;51.446;6.698;2022-09-24T06:57:39;27.93;;;21.63;;
12271;SDS011;6198;51.446;6.698;2022-09-24T07:00:05;30.67;;;22.33;;
12271;SDS011;6198;51.446;6.698;2022-09-24T07:02:31;33.63;;;23.20;;
12271;SDS011;6198;51.446;6.698;2022-09-24T07:04:57;28.57;;;22.17;;
12271;SDS011;6198;51.446;6.698;2022-09-24T07:07:23;28.90;;;20.97;;
12271;SDS011;6198;51.446;6.698;2022-09-24T07:09:57;29.10;;;20.83;;
12271;SDS011;6198;51.446;6.698;2022-09-24T07:12:24;26.63;;;21.67;;
12271;SDS011;6198;51.446;6.698;2022-09-24T07:14:50;27.37;;;21.57;;
12271;SDS011;6198;51.446;6.698;2022-09-24T07:17:16;28.57;;;21.40;;
12271;SDS011;6198;51.446;6.698;2022-09-24T07:19:42;27.87;;;20.97;;
12271;SDS011;6198;51.446;6.698;2022-09-24T07:22:08;33.77;;;21.30;;
12271;SDS011;6198;51.446;6.698;2022-09-24T07:24:34;25.07;;;21.03;;
12271;SDS011;6198;51.446;6.698;2022-09-24T07:27:02;29.03;;;21.50;;
12271;SDS011;6198;51.446;6.698;2022-09-24T07:29:28;23.70;;;20.27;;
12271;SDS011;6198;51.446;6.698;2022-09-24T07:31:54;28.33;;;21.37;;
12271;SDS011;6198;51.446;6.698;2022-09-24T07:34:20;24.20;;;20.57;;
12271;SDS011;6198;51.446;6.698;2022-09-24T07:36:46;28.53;;;21.70;;
12271;SDS011;6198;51.446;6.698;2022-09-24T07:39:13;25.60;;;21.17;;
12271;SDS011;6198;51.446;6.698;2022-09-24T07:41:39;25.30;;;20.33;;
12271;SDS011;6198;51.446;6.698;2022-09-24T07:44:06;25.80;;;21.03;;
12271;SDS011;6198;51.446;6.698;2022-09-24T07:46:32;26.27;;;20.13;;
12271;SDS011;6198;51.446;6.698;2022-09-24T07:48:58;25.50;;;19.97;;
12271;SDS011;6198;51.446;6.698;2022-09-24T07:51:24;23.47;;;20.17;;
12271;SDS011;6198;51.446;6.698;2022-09-24T07:53:52;24.30;;;20.37;;
12271;SDS011;6198;51.446;6.698;2022-09-24T07:56:18;27.07;;;20.10;;
12271;SDS011;6198;51.446;6.698;2022-09-24T07:58:47;24.43;;;20.23;;
12271;SDS011;6198;51.446;6.698;2022-09-24T08:01:14;24.33;;;19.07;;
12271;SDS011;6198;51.446;6.698;2022-09-24T08:03:41;26.97;;;21.20;;
12271;SDS011;6198;51.446;6.698;2022-09-24T08:06:07;23.60;;;20.13;;
12271;SDS011;6198;51.446;6.698;2022-09-24T08:08:33;22.97;;;20.47;;
12271;SDS011;6198;51.446;6.698;2022-09-24T08:11:03;23.20;;;20.77;;
12271;SDS011;6198;51.446;6.698;2022-09-24T08:13:29;23.40;;;19.73;;
12271;SDS011;6198;51.446;6.698;2022-09-24T08:15:56;25.87;;;20.27;;
12271;SDS011;6198;51.446;6.698;2022-09-24T08:18:23;28.37;;;19.63;;
12271;SDS011;6198;51.446;6.698;2022-09-24T08:20:49;24.67;;;20.60;;
12271;SDS011;6198;51.446;6.698;2022-09-24T08:23:15;27.47;;;20.50;;
12271;SDS011;6198;51.446;6.698;2022-09-24T08:25:41;24.63;;;19.00;;
12271;SDS011;6198;51.446;6.698;2022-09-24T08:28:07;25.70;;;19.10;;
12271;SDS011;6198;51.446;6.698;2022-09-24T08:30:40;25.50;;;18.27;;
12271;SDS011;6198;51.446;6.698;2022-09-24T08:33:06;21.43;;;17.90;;
12271;SDS011;6198;51.446;6.698;2022-09-24T08:35:33;22.90;;;17.57;;
12271;SDS011;6198;51.446;6.698;2022-09-24T08:37:59;23.20;;;18.03;;
12271;SDS011;6198;51.446;6.698;2022-09-24T08:40:26;20.17;;;16.47;;
12271;SDS011;6198;51.446;6.698;2022-09-24T08:45:23;20.10;;;17.37;;
12271;SDS011;6198;51.446;6.698;2022-09-24T08:48:18;20.50;;;16.57;;
12271;SDS011;6198;51.446;6.698;2022-09-24T08:50:50;21.97;;;16.67;;
12271;SDS011;6198;51.446;6.698;2022-09-24T08:55:54;19.10;;;15.77;;
12271;SDS011;6198;51.446;6.698;2022-09-24T09:05:58;16.70;;;11.80;;
12271;SDS011;6198;51.446;6.698;2022-09-24T09:08:32;14.57;;;12.20;;
12271;SDS011;6198;51.446;6.698;2022-09-24T09:11:00;12.37;;;11.07;;
12271;SDS011;6198;51.446;6.698;2022-09-24T09:13:35;13.27;;;11.27;;
12271;SDS011;6198;51.446;6.698;2022-09-24T09:16:04;13.43;;;12.03;;
12271;SDS011;6198;51.446;6.698;2022-09-24T09:18:41;14.83;;;12.87;;
12271;SDS011;6198;51.446;6.698;2022-09-24T09:23:38;16.77;;;13.23;;
12271;SDS011;6198;51.446;6.698;2022-09-24T09:26:09;14.67;;;12.27;;
12271;SDS011;6198;51.446;6.698;2022-09-24T09:28:36;16.10;;;11.13;;
12271;SDS011;6198;51.446;6.698;2022-09-24T09:36:01;13.43;;;12.03;;
12271;SDS011;6198;51.446;6.698;2022-09-24T09:38:42;12.17;;;10.90;;
12271;SDS011;6198;51.446;6.698;2022-09-24T09:41:19;14.37;;;11.23;;
12271;SDS011;6198;51.446;6.698;2022-09-24T09:43:47;14.17;;;11.83;;
12271;SDS011;6198;51.446;6.698;2022-09-24T09:46:17;14.73;;;11.50;;
12271;SDS011;6198;51.446;6.698;2022-09-24T09:48:46;17.80;;;12.60;;
12271;SDS011;6198;51.446;6.698;2022-09-24T09:51:17;16.23;;;14.00;;
12271;SDS011;6198;51.446;6.698;2022-09-24T09:53:53;17.83;;;12.07;;
12271;SDS011;6198;51.446;6.698;2022-09-24T09:56:21;13.73;;;11.50;;
12271;SDS011;6198;51.446;6.698;2022-09-24T09:58:48;14.07;;;10.60;;
12271;SDS011;6198;51.446;6.698;2022-09-24T10:01:17;13.83;;;11.07;;
12271;SDS011;6198;51.446;6.698;2022-09-24T10:06:23;14.13;;;9.03;;
12271;SDS011;6198;51.446;6.698;2022-09-24T10:08:49;9.47;;;8.50;;
12271;SDS011;6198;51.446;6.698;2022-09-24T10:11:15;9.20;;;8.20;;
12271;SDS011;6198;51.446;6.698;2022-09-24T10:13:42;9.77;;;8.00;;
12271;SDS011;6198;51.446;6.698;2022-09-24T10:16:09;8.47;;;6.80;;
12271;SDS011;6198;51.446;6.698;2022-09-24T10:18:37;7.23;;;6.50;;
12271;SDS011;6198;51.446;6.698;2022-09-24T10:21:10;8.10;;;7.20;;
12271;SDS011;6198;51.446;6.698;2022-09-24T10:26:02;7.73;;;6.93;;
12271;SDS011;6198;51.446;6.698;2022-09-24T10:28:29;8.37;;;6.53;;
12271;SDS011;6198;51.446;6.698;2022-09-24T10:31:21;10.13;;;6.83;;
12271;SDS011;6198;51.446;6.698;2022-09-24T10:33:49;9.27;;;6.90;;
12271;SDS011;6198;51.446;6.698;2022-09-24T10:36:20;8.17;;;6.80;;
12271;SDS011;6198;51.446;6.698;2022-09-24T10:38:47;9.87;;;6.63;;
12271;SDS011;6198;51.446;6.698;2022-09-24T10:41:14;9.17;;;7.03;;
12271;SDS011;6198;51.446;6.698;2022-09-24T10:43:48;11.10;;;8.57;;
12271;SDS011;6198;51.446;6.698;2022-09-24T10:49:06;9.23;;;6.97;;
12271;SDS011;6198;51.446;6.698;2022-09-24T10:51:36;8.43;;;6.93;;
12271;SDS011;6198;51.446;6.698;2022-09-24T10:56:37;7.50;;;6.70;;
12271;SDS011;6198;51.446;6.698;2022-09-24T10:59:17;9.77;;;7.27;;
12271;SDS011;6198;51.446;6.698;2022-09-24T11:07:05;8.50;;;7.13;;
12271;SDS011;6198;51.446;6.698;2022-09-24T11:09:39;8.30;;;6.77;;
12271;SDS011;6198;51.446;6.698;2022-09-24T11:12:13;7.53;;;6.70;;
12271;SDS011;6198;51.446;6.698;2022-09-24T11:19:49;7.57;;;6.87;;
12271;SDS011;6198;51.446;6.698;2022-09-24T11:38:09;11.53;;;7.83;;
12271;SDS011;6198;51.446;6.698;2022-09-24T11:40:58;8.13;;;7.33;;
12271;SDS011;6198;51.446;6.698;2022-09-24T11:46:10;8.23;;;7.40;;
12271;SDS011;6198;51.446;6.698;2022-09-24T11:53:40;10.53;;;9.00;;
12271;SDS011;6198;51.446;6.698;2022-09-24T11:56:19;9.37;;;8.40;;
12271;SDS011;6198;51.446;6.698;2022-09-24T11:58:47;9.37;;;8.47;;
12271;SDS011;6198;51.446;6.698;2022-09-24T12:01:16;10.23;;;8.43;;
12271;SDS011;6198;51.446;6.698;2022-09-24T12:03:46;9.50;;;7.80;;
12271;SDS011;6198;51.446;6.698;2022-09-24T12:06:18;8.50;;;7.60;;
12271;SDS011;6198;51.446;6.698;2022-09-24T12:08:55;10.33;;;8.67;;
12271;SDS011;6198;51.446;6.698;2022-09-24T12:11:43;10.83;;;8.27;;
12271;SDS011;6198;51.446;6.698;2022-09-24T12:14:18;9.60;;;8.60;;
12271;SDS011;6198;51.446;6.698;2022-09-24T12:16:47;11.10;;;8.33;;
12271;SDS011;6198;51.446;6.698;2022-09-24T12:19:24;10.63;;;8.57;;
12271;SDS011;6198;51.446;6.698;2022-09-24T12:21:52;11.23;;;7.67;;
12271;SDS011;6198;51.446;6.698;2022-09-24T12:27:14;8.70;;;7.80;;
12271;SDS011;6198;51.446;6.698;2022-09-24T12:37:46;9.63;;;8.33;;
12271;SDS011;6198;51.446;6.698;2022-09-24T12:42:50;13.20;;;8.83;;
12271;SDS011;6198;51.446;6.698;2022-09-24T12:45:19;11.30;;;8.23;;
12271;SDS011;6198;51.446;6.698;2022-09-24T12:47:51;9.53;;;8.37;;
12271;SDS011;6198;51.446;6.698;2022-09-24T12:50:22;11.67;;;7.87;;
12271;SDS011;6198;51.446;6.698;2022-09-24T12:52:49;23.33;;;19.50;;
12271;SDS011;6198;51.446;6.698;2022-09-24T12:55:22;31.87;;;25.03;;
12271;SDS011;6198;51.446;6.698;2022-09-24T12:57:49;20.27;;;14.37;;
12271;SDS011;6198;51.446;6.698;2022-09-24T13:00:32;9.37;;;7.87;;
12271;SDS011;6198;51.446;6.698;2022-09-24T13:02:59;8.40;;;6.70;;
12271;SDS011;6198;51.446;6.698;2022-09-24T13:05:26;8.33;;;6.93;;
12271;SDS011;6198;51.446;6.698;2022-09-24T13:08:02;8.03;;;7.23;;
12271;SDS011;6198;51.446;6.698;2022-09-24T13:10:30;8.63;;;7.47;;
12271;SDS011;6198;51.446;6.698;2022-09-24T13:12:57;7.87;;;7.00;;
12271;SDS011;6198;51.446;6.698;2022-09-24T13:15:36;7.60;;;6.27;;
12271;SDS011;6198;51.446;6.698;2022-09-24T13:20:36;8.33;;;7.53;;
12271;SDS011;6198;51.446;6.698;2022-09-24T13:23:13;7.73;;;6.93;;
12271;SDS011;6198;51.446;6.698;2022-09-24T13:25:40;7.63;;;6.83;;
12271;SDS011;6198;51.446;6.698;2022-09-24T13:28:19;9.47;;;7.53;;
12271;SDS011;6198;51.446;6.698;2022-09-24T13:30:52;8.73;;;7.53;;
12271;SDS011;6198;51.446;6.698;2022-09-24T13:33:27;8.37;;;7.57;;
12271;SDS011;6198;51.446;6.698;2022-09-24T13:36:00;8.33;;;7.50;;
12271;SDS011;6198;51.446;6.698;2022-09-24T13:38:37;9.07;;;7.97;;
12271;SDS011;6198;51.446;6.698;2022-09-24T13:43:57;8.07;;;7.27;;
12271;SDS011;6198;51.446;6.698;2022-09-24T13:46:25;10.47;;;7.50;;
12271;SDS011;6198;51.446;6.698;2022-09-24T13:48:52;11.33;;;9.33;;
12271;SDS011;6198;51.446;6.698;2022-09-24T13:51:22;9.07;;;7.87;;
12271;SDS011;6198;51.446;6.698;2022-09-24T13:53:51;9.90;;;8.27;;
12271;SDS011;6198;51.446;6.698;2022-09-24T13:56:18;12.20;;;10.83;;
12271;SDS011;6198;51.446;6.698;2022-09-24T13:58:45;10.30;;;7.43;;
12271;SDS011;6198;51.446;6.698;2022-09-24T14:03:41;8.87;;;7.97;;
12271;SDS011;6198;51.446;6.698;2022-09-24T14:06:16;10.63;;;8.57;;
12271;SDS011;6198;51.446;6.698;2022-09-24T14:08:45;9.93;;;8.93;;
12271;SDS011;6198;51.446;6.698;2022-09-24T14:11:13;11.00;;;8.77;;
12271;SDS011;6198;51.446;6.698;2022-09-24T14:13:39;9.37;;;8.47;;
12271;SDS011;6198;51.446;6.698;2022-09-24T14:16:11;10.97;;;9.33;;
12271;SDS011;6198;51.446;6.698;2022-09-24T14:18:37;12.33;;;9.53;;
12271;SDS011;6198;51.446;6.698;2022-09-24T14:21:08;10.93;;;8.93;;
12271;SDS011;6198;51.446;6.698;2022-09-24T14:23:37;10.13;;;8.60;;
12271;SDS011;6198;51.446;6.698;2022-09-24T14:26:04;10.00;;;8.87;;
12271;SDS011;6198;51.446;6.698;2022-09-24T14:28:31;10.63;;;9.33;;
12271;SDS011;6198;51.446;6.698;2022-09-24T14:30:58;14.03;;;9.57;;
12271;SDS011;6198;51.446;6.698;2022-09-24T14:33:25;10.00;;;8.50;;
12271;SDS011;6198;51.446;6.698;2022-09-24T14:35:54;10.97;;;9.87;;
12271;SDS011;6198;51.446;6.698;2022-09-24T14:38:24;14.43;;;9.80;;
12271;SDS011;6198;51.446;6.698;2022-09-24T14:40:57;10.83;;;9.73;;
12271;SDS011;6198;51.446;6.698;2022-09-24T14:43:26;10.37;;;9.37;;
12271;SDS011;6198;51.446;6.698;2022-09-24T14:46:00;13.23;;;10.40;;
12271;SDS011;6198;51.446;6.698;2022-09-24T14:48:28;12.73;;;10.87;;
12271;SDS011;6198;51.446;6.698;2022-09-24T14:50:54;11.43;;;10.00;;
12271;SDS011;6198;51.446;6.698;2022-09-24T14:53:31;11.93;;;10.60;;
12271;SDS011;6198;51.446;6.698;2022-09-24T14:55:58;14.00;;;11.37;;
12271;SDS011;6198;51.446;6.698;2022-09-24T15:00:58;14.33;;;12.10;;
12271;SDS011;6198;51.446;6.698;2022-09-24T15:03:31;12.90;;;11.50;;
12271;SDS011;6198;51.446;6.698;2022-09-24T15:06:02;15.73;;;12.87;;
12271;SDS011;6198;51.446;6.698;2022-09-24T15:08:28;13.83;;;11.57;;
12271;SDS011;6198;51.446;6.698;2022-09-24T15:11:01;14.20;;;11.87;;
12271;SDS011;6198;51.446;6.698;2022-09-24T15:13:32;12.20;;;10.90;;
12271;SDS011;6198;51.446;6.698;2022-09-24T15:16:05;12.23;;;10.93;;
12271;SDS011;6198;51.446;6.698;2022-09-24T15:18:32;11.77;;;10.57;;
12271;SDS011;6198;51.446;6.698;2022-09-24T15:21:01;12.10;;;10.73;;
12271;SDS011;6198;51.446;6.698;2022-09-24T15:23:32;11.63;;;10.43;;
12271;SDS011;6198;51.446;6.698;2022-09-24T15:25:58;12.20;;;10.83;;
12271;SDS011;6198;51.446;6.698;2022-09-24T15:28:24;16.53;;;12.47;;
12271;SDS011;6198;51.446;6.698;2022-09-24T15:30:53;17.13;;;13.13;;
12271;SDS011;6198;51.446;6.698;2022-09-24T15:33:18;15.17;;;13.57;;
12271;SDS011;6198;51.446;6.698;2022-09-24T15:35:44;16.40;;;13.53;;
12271;SDS011;6198;51.446;6.698;2022-09-24T15:38:12;16.70;;;15.00;;
12271;SDS011;6198;51.446;6.698;2022-09-24T15:40:39;16.20;;;13.63;;
12271;SDS011;6198;51.446;6.698;2022-09-24T15:43:10;20.20;;;15.53;;
12271;SDS011;6198;51.446;6.698;2022-09-24T15:45:37;20.63;;;17.03;;
12271;SDS011;6198;51.446;6.698;2022-09-24T15:48:03;24.73;;;18.50;;
12271;SDS011;6198;51.446;6.698;2022-09-24T15:50:31;23.83;;;18.70;;
12271;SDS011;6198;51.446;6.698;2022-09-24T15:52:58;23.47;;;18.43;;
12271;SDS011;6198;51.446;6.698;2022-09-24T15:55:24;20.90;;;17.63;;
12271;SDS011;6198;51.446;6.698;2022-09-24T15:57:50;20.73;;;17.03;;
12271;SDS011;6198;51.446;6.698;2022-09-24T16:00:17;18.47;;;16.40;;
12271;SDS011;6198;51.446;6.698;2022-09-24T16:02:47;18.97;;;16.27;;
12271;SDS011;6198;51.446;6.698;2022-09-24T16:05:14;21.53;;;17.10;;
12271;SDS011;6198;51.446;6.698;2022-09-24T16:07:40;21.23;;;16.30;;
12271;SDS011;6198;51.446;6.698;2022-09-24T16:10:06;17.67;;;15.13;;
12271;SDS011;6198;51.446;6.698;2022-09-24T16:12:32;20.57;;;16.40;;
12271;SDS011;6198;51.446;6.698;2022-09-24T16:14:58;20.23;;;16.20;;
12271;SDS011;6198;51.446;6.698;2022-09-24T16:17:28;20.33;;;16.53;;
12271;SDS011;6198;51.446;6.698;2022-09-24T16:19:54;20.80;;;17.03;;
12271;SDS011;6198;51.446;6.698;2022-09-24T16:22:20;20.13;;;17.97;;
12271;SDS011;6198;51.446;6.698;2022-09-24T16:24:46;19.90;;;17.37;;
12271;SDS011;6198;51.446;6.698;2022-09-24T16:27:12;20.93;;;18.73;;
12271;SDS011;6198;51.446;6.698;2022-09-24T16:29:39;24.50;;;18.90;;
12271;SDS011;6198;51.446;6.698;2022-09-24T16:32:05;22.43;;;19.00;;
12271;SDS011;6198;51.446;6.698;2022-09-24T16:34:31;21.17;;;18.23;;
12271;SDS011;6198;51.446;6.698;2022-09-24T16:36:58;20.93;;;18.73;;
12271;SDS011;6198;51.446;6.698;2022-09-24T16:39:24;22.13;;;19.50;;